Time;durP1;ratioP1;P1;durP2;ratioP2;P2;SDS_P1;SDS_P2;PMS_P1;PMS_P2;Temp;Humidity;BMP_temperature;BMP_pressure;BME280_temperature;BME280_humidity;BME280_pressure;Samples;Min_cycle;Max_cycle;Signal;HPM_P1;HPM_P2
2022/10/25 04:02:42;;;;;;;3.00;2.47;;;10.70;99.90;;;;;;4949142;29;20573;-76
2022/10/25 04:05:09;;;;;;;5.40;2.47;;;10.70;99.90;;;;;;4948320;28;20462;-76
2022/10/25 04:07:36;;;;;;;4.30;2.47;;;10.80;99.90;;;;;;4948017;28;20461;-76
2022/10/25 04:10:04;;;;;;;2.57;2.37;;;10.80;99.90;;;;;;4947917;28;20783;-77
2022/10/25 04:12:31;;;;;;;5.50;2.90;;;10.80;99.90;;;;;;4947840;28;20773;-76
2022/10/25 04:14:57;;;;;;;3.27;2.37;;;10.70;99.90;;;;;;4947665;28;20453;-76
2022/10/25 04:17:24;;;;;;;3.53;2.50;;;10.60;99.90;;;;;;4948397;28;20469;-77
2022/10/25 04:19:52;;;;;;;4.87;3.90;;;10.60;99.90;;;;;;4946031;28;20484;-76
2022/10/25 04:22:19;;;;;;;5.13;3.47;;;10.60;99.90;;;;;;4947686;28;20485;-76
2022/10/25 04:24:46;;;;;;;5.33;2.90;;;10.60;99.90;;;;;;4947443;28;20820;-77
2022/10/25 04:27:13;;;;;;;11.33;7.00;;;10.70;99.90;;;;;;4948220;28;20472;-77
2022/10/25 04:29:40;;;;;;;85.17;34.83;;;10.60;99.90;;;;;;4946041;28;20457;-76
2022/10/25 04:32:07;;;;;;;45.17;22.80;;;10.60;99.90;;;;;;4948253;28;20486;-76
2022/10/25 04:34:33;;;;;;;61.45;31.80;;;10.70;99.90;;;;;;4946070;28;20444;-77
2022/10/25 04:37:02;;;;;;;29.70;16.73;;;10.80;99.90;;;;;;4947784;28;20228;-76
2022/10/25 04:39:29;;;;;;;27.03;13.67;;;10.80;99.90;;;;;;4947969;28;20469;-77
2022/10/25 04:41:56;;;;;;;17.90;9.47;;;10.80;99.90;;;;;;4947904;28;20483;-66
2022/10/25 04:44:22;;;;;;;16.93;7.60;;;10.80;99.90;;;;;;4946943;28;20527;-66
2022/10/25 04:46:50;;;;;;;19.10;11.73;;;10.70;99.90;;;;;;4947531;28;20511;-66
2022/10/25 04:49:18;;;;;;;29.73;12.83;;;10.70;99.90;;;;;;4947161;28;20845;-66
2022/10/25 04:51:44;;;;;;;11.10;6.50;;;10.60;99.90;;;;;;4947814;28;20839;-66
2022/10/25 04:54:13;;;;;;;15.10;7.20;;;10.60;99.90;;;;;;4946607;28;20824;-66
2022/10/25 04:56:40;;;;;;;15.77;7.10;;;10.60;99.90;;;;;;4947491;28;20484;-66
2022/10/25 04:59:08;;;;;;;9.33;6.20;;;10.50;99.90;;;;;;4947181;28;20988;-67
2022/10/25 05:01:35;;;;;;;10.20;5.77;;;10.50;99.90;;;;;;4947240;28;20493;-68
2022/10/25 05:04:02;;;;;;;14.50;6.97;;;10.50;99.90;;;;;;4948869;28;20493;-78
2022/10/25 05:06:29;;;;;;;9.70;6.40;;;10.50;99.90;;;;;;4948742;28;20461;-78
2022/10/25 05:08:56;;;;;;;14.50;6.43;;;10.50;99.90;;;;;;4951546;28;20481;-77
2022/10/25 05:11:25;;;;;;;9.30;6.00;;;10.50;99.90;;;;;;4950558;28;20894;-78
2022/10/25 05:13:52;;;;;;;14.47;9.30;;;10.40;99.90;;;;;;4967843;28;20456;-78
2022/10/25 05:16:22;;;;;;;12.47;5.50;;;10.40;99.90;;;;;;4967499;28;20470;-78
2022/10/25 05:18:50;;;;;;;7.10;5.00;;;10.40;99.90;;;;;;4968462;28;20523;-77
2022/10/25 05:21:18;;;;;;;7.90;4.20;;;10.40;99.90;;;;;;4966015;28;20484;-78
2022/10/25 05:23:45;;;;;;;7.83;4.33;;;10.30;99.90;;;;;;4968826;28;20816;-78
2022/10/25 05:26:16;;;;;;;7.10;4.47;;;10.30;99.90;;;;;;4967350;28;20464;-78
2022/10/25 05:28:46;;;;;;;15.23;4.30;;;10.30;99.90;;;;;;4967573;28;20468;-77
2022/10/25 05:31:15;;;;;;;3.60;3.20;;;10.30;99.90;;;;;;4966032;28;20495;-78
2022/10/25 05:33:43;;;;;;;5.17;3.87;;;10.20;99.90;;;;;;4969981;28;21101;-77
2022/10/25 05:36:11;;;;;;;6.10;3.97;;;10.20;99.90;;;;;;4958726;28;21034;-78
2022/10/25 05:38:38;;;;;;;6.47;4.10;;;10.20;99.90;;;;;;4954556;28;20477;-78
2022/10/25 05:41:05;;;;;;;4.10;3.70;;;10.20;99.90;;;;;;4960374;28;20484;-77
2022/10/25 05:43:32;;;;;;;8.63;3.97;;;10.20;99.90;;;;;;4961494;28;21200;-78
2022/10/25 05:46:06;;;;;;;4.30;3.50;;;10.20;99.90;;;;;;4970413;28;20491;-78
2022/10/25 05:48:34;;;;;;;4.60;3.40;;;10.20;99.90;;;;;;4971508;28;20463;-78
2022/10/25 05:51:14;;;;;;;7.03;4.03;;;10.20;99.90;;;;;;4971351;28;20476;-78
2022/10/25 05:53:45;;;;;;;5.43;3.40;;;10.20;99.90;;;;;;4972759;28;20467;-78
2022/10/25 05:56:13;;;;;;;9.23;3.57;;;10.20;99.90;;;;;;4956272;28;20457;-78
2022/10/25 05:58:39;;;;;;;6.50;3.63;;;10.10;99.90;;;;;;4951343;28;21440;-77
2022/10/25 06:01:09;;;;;;;3.90;3.60;;;10.10;99.90;;;;;;4957510;28;20495;-78
2022/10/25 06:03:36;;;;;;;4.93;3.77;;;10.10;99.90;;;;;;4971303;28;20554;-78
2022/10/25 06:06:05;;;;;;;9.37;4.10;;;10.10;99.90;;;;;;4967393;28;20912;-78
2022/10/25 06:08:33;;;;;;;6.83;4.30;;;10.10;99.90;;;;;;4971581;28;20468;-78
2022/10/25 06:11:02;;;;;;;5.43;4.73;;;10.10;99.90;;;;;;4968515;28;20484;-77
2022/10/25 06:13:29;;;;;;;5.27;4.77;;;10.10;99.90;;;;;;4970733;28;20528;-77
2022/10/25 06:15:56;;;;;;;4.90;3.97;;;10.10;99.90;;;;;;4962892;28;20465;-78
2022/10/25 06:18:24;;;;;;;9.67;4.43;;;10.10;99.90;;;;;;4952647;28;20470;-78
2022/10/25 06:20:51;;;;;;;9.23;3.53;;;10.20;99.90;;;;;;4952401;28;20490;-78
2022/10/25 06:23:18;;;;;;;7.80;4.27;;;10.10;99.90;;;;;;4951970;28;20500;-78
2022/10/25 06:25:45;;;;;;;11.83;4.93;;;10.10;99.90;;;;;;4952580;28;20552;-78
2022/10/25 06:28:11;;;;;;;5.73;4.93;;;10.10;99.90;;;;;;4953931;28;20457;-80
2022/10/25 06:30:38;;;;;;;6.97;4.93;;;10.10;99.90;;;;;;4951856;28;20488;-79
2022/10/25 06:33:05;;;;;;;8.20;5.53;;;10.10;99.90;;;;;;4953869;28;20466;-78
2022/10/25 06:35:33;;;;;;;7.33;5.10;;;10.00;99.90;;;;;;4953799;28;20457;-79
2022/10/25 06:38:00;;;;;;;6.83;4.50;;;10.00;99.90;;;;;;4954607;28;20463;-79
2022/10/25 06:40:27;;;;;;;8.43;5.80;;;10.00;99.90;;;;;;4955109;28;21267;-78
2022/10/25 06:42:56;;;;;;;8.63;5.50;;;10.00;99.90;;;;;;4954345;28;20476;-78
2022/10/25 06:45:23;;;;;;;4.83;3.93;;;10.00;99.90;;;;;;4954046;28;20524;-78
2022/10/25 06:47:50;;;;;;;7.80;4.40;;;10.00;99.90;;;;;;4954823;28;20457;-79
2022/10/25 06:50:17;;;;;;;6.63;4.93;;;10.00;99.90;;;;;;4954047;28;20845;-79
2022/10/25 06:52:45;;;;;;;6.77;5.20;;;10.10;99.90;;;;;;4954345;28;20469;-78
2022/10/25 06:55:12;;;;;;;6.27;4.87;;;10.10;99.90;;;;;;4953181;28;20973;-78
2022/10/25 06:57:38;;;;;;;5.70;5.10;;;10.10;99.90;;;;;;4953691;28;20480;-79
2022/10/25 07:00:06;;;;;;;6.93;5.00;;;10.00;99.90;;;;;;4953531;28;20465;-78
2022/10/25 07:02:33;;;;;;;8.30;5.17;;;10.10;99.90;;;;;;4953442;28;20495;-79
2022/10/25 07:05:00;;;;;;;5.73;4.40;;;10.00;99.90;;;;;;4952984;28;20504;-79
2022/10/25 07:07:27;;;;;;;7.20;5.20;;;10.10;99.90;;;;;;4953715;28;20471;-79
2022/10/25 07:09:55;;;;;;;6.20;4.93;;;10.10;99.90;;;;;;4954801;28;20457;-79
2022/10/25 07:12:22;;;;;;;7.80;5.40;;;10.10;99.90;;;;;;4954988;28;20488;-78
2022/10/25 07:14:48;;;;;;;6.53;5.50;;;10.10;99.90;;;;;;4953113;28;20453;-79
2022/10/25 07:17:15;;;;;;;7.50;4.87;;;10.20;99.90;;;;;;4954369;28;20456;-78
2022/10/25 07:19:42;;;;;;;8.23;5.50;;;10.20;99.90;;;;;;4954623;28;20461;-78
2022/10/25 07:22:09;;;;;;;7.80;4.80;;;10.30;99.90;;;;;;4954537;28;20494;-79
2022/10/25 07:24:35;;;;;;;7.20;4.97;;;10.30;99.90;;;;;;4954560;28;21009;-79
2022/10/25 07:27:04;;;;;;;5.13;4.43;;;10.30;99.90;;;;;;4954640;28;20466;-78
2022/10/25 07:29:30;;;;;;;6.10;3.90;;;10.30;99.90;;;;;;4953586;28;20468;-79
2022/10/25 07:31:57;;;;;;;6.33;4.93;;;10.40;99.90;;;;;;4953909;28;20484;-79
2022/10/25 07:34:24;;;;;;;5.70;4.40;;;10.40;99.90;;;;;;4952775;28;20457;-79
2022/10/25 07:36:51;;;;;;;8.83;4.67;;;10.40;99.90;;;;;;4953875;28;20453;-79
2022/10/25 07:39:17;;;;;;;6.43;5.00;;;10.50;99.90;;;;;;4953944;28;20471;-79
2022/10/25 07:41:44;;;;;;;10.93;5.50;;;10.50;99.90;;;;;;4953826;28;20482;-79
2022/10/25 07:44:12;;;;;;;8.63;6.27;;;10.60;99.90;;;;;;4952861;28;20493;-79
2022/10/25 07:46:39;;;;;;;7.37;5.13;;;10.60;99.90;;;;;;4953169;28;20458;-78
2022/10/25 07:49:06;;;;;;;9.33;6.10;;;10.70;99.90;;;;;;4952994;28;20472;-79
2022/10/25 07:51:32;;;;;;;8.20;5.40;;;10.70;99.90;;;;;;4953515;28;20489;-79
2022/10/25 07:53:59;;;;;;;9.63;5.90;;;10.80;99.90;;;;;;4953031;28;20472;-80
2022/10/25 07:56:26;;;;;;;9.17;6.63;;;10.80;99.90;;;;;;4952527;28;20489;-80
2022/10/25 07:58:53;;;;;;;8.60;6.27;;;10.90;99.90;;;;;;4958007;28;20456;-80
2022/10/25 08:01:22;;;;;;;9.77;6.83;;;11.00;99.90;;;;;;4959901;28;20477;-80
2022/10/25 08:03:49;;;;;;;9.10;6.80;;;11.10;99.90;;;;;;4954927;28;20882;-78
2022/10/25 08:06:16;;;;;;;8.27;6.63;;;11.30;99.90;;;;;;4951706;28;20469;-79
2022/10/25 08:08:43;;;;;;;10.00;7.73;;;11.40;99.90;;;;;;4953558;28;20461;-79
2022/10/25 08:11:10;;;;;;;14.87;9.47;;;11.50;99.90;;;;;;4947859;28;20481;-68
2022/10/25 08:13:38;;;;;;;10.47;8.70;;;11.60;99.90;;;;;;4946255;28;20474;-67
2022/10/25 08:16:06;;;;;;;12.60;8.90;;;11.70;99.90;;;;;;4947461;28;20461;-68
2022/10/25 08:18:34;;;;;;;10.13;7.73;;;11.90;99.90;;;;;;4947707;28;20466;-69
2022/10/25 08:21:02;;;;;;;10.20;7.93;;;12.10;99.90;;;;;;4947657;28;20485;-68
2022/10/25 08:23:30;;;;;;;13.77;8.40;;;12.20;99.90;;;;;;4948113;28;20486;-68
2022/10/25 08:25:56;;;;;;;11.67;8.20;;;12.40;99.90;;;;;;4947288;28;20504;-66
2022/10/25 08:28:23;;;;;;;15.73;9.63;;;12.50;99.90;;;;;;4947424;28;20954;-65
2022/10/25 08:30:50;;;;;;;10.03;7.17;;;12.60;99.90;;;;;;4947805;28;20527;-68
2022/10/25 08:33:17;;;;;;;14.47;8.73;;;12.80;99.90;;;;;;4948050;28;20468;-67
2022/10/25 08:35:45;;;;;;;9.70;6.43;;;12.80;99.90;;;;;;4947052;28;20464;-66
2022/10/25 08:38:11;;;;;;;10.70;6.40;;;12.90;99.90;;;;;;4947986;28;20470;-66
2022/10/25 08:40:47;;;;;;;9.87;6.07;;;13.10;99.90;;;;;;4947654;28;20485;-66
2022/10/25 08:43:35;;;;;;;8.80;5.30;;;13.20;99.90;;;;;;4947789;28;20464;-66
2022/10/25 08:46:05;;;;;;;13.53;6.20;;;13.30;99.90;;;;;;4944739;28;20507;-66
2022/10/25 08:48:36;;;;;;;8.83;4.20;;;13.40;99.90;;;;;;4947604;28;20434;-66
2022/10/25 08:51:12;;;;;;;10.93;4.70;;;13.50;99.90;;;;;;4947496;28;20477;-65
2022/10/25 08:53:44;;;;;;;7.07;3.90;;;13.50;99.90;;;;;;4947629;28;20517;-65
2022/10/25 08:56:14;;;;;;;17.70;4.40;;;13.60;99.90;;;;;;4947135;28;20456;-65
2022/10/25 08:58:47;;;;;;;6.33;3.43;;;13.70;99.90;;;;;;4948129;28;20990;-77
2022/10/25 09:01:18;;;;;;;6.63;3.40;;;13.90;99.90;;;;;;4947772;28;20488;-78
2022/10/25 09:03:45;;;;;;;8.80;3.60;;;14.00;99.90;;;;;;4949022;28;20448;-78
2022/10/25 09:06:23;;;;;;;10.67;3.40;;;14.10;99.90;;;;;;4948409;28;20458;-76
2022/10/25 09:09:04;;;;;;;6.53;2.90;;;14.20;99.90;;;;;;4952605;28;20976;-76
2022/10/25 09:11:45;;;;;;;5.00;2.93;;;14.30;99.90;;;;;;4952659;28;20485;-77
2022/10/25 09:14:19;;;;;;;6.27;2.60;;;14.40;99.90;;;;;;4954672;28;20484;-78
2022/10/25 09:16:49;;;;;;;5.20;2.63;;;14.50;99.90;;;;;;4958409;28;20464;-77
2022/10/25 09:19:20;;;;;;;6.47;2.60;;;14.60;99.90;;;;;;4958278;28;20452;-77
2022/10/25 09:21:53;;;;;;;6.63;3.00;;;14.70;99.90;;;;;;4933604;29;20485;-78
2022/10/25 09:24:23;;;;;;;5.00;2.47;;;14.90;99.90;;;;;;4937618;29;20488;-78
2022/10/25 09:27:04;;;;;;;3.67;2.03;;;15.10;99.90;;;;;;4946153;29;20841;-77
2022/10/25 09:29:36;;;;;;;7.33;2.33;;;15.20;99.90;;;;;;4951270;28;20458;-77
2022/10/25 09:32:11;;;;;;;3.60;2.20;;;15.30;99.90;;;;;;4951368;28;20477;-77
2022/10/25 09:34:39;;;;;;;5.70;2.27;;;15.40;99.90;;;;;;4950781;28;20437;-77
2022/10/25 09:37:16;;;;;;;2.30;1.80;;;15.50;99.90;;;;;;4950546;28;20462;-76
2022/10/25 09:39:46;;;;;;;5.27;2.07;;;15.60;99.90;;;;;;4951200;28;20457;-75
2022/10/25 09:42:19;;;;;;;6.30;1.90;;;15.70;99.90;;;;;;4950507;28;20481;-76
2022/10/25 09:44:50;;;;;;;7.90;2.43;;;15.80;99.90;;;;;;4947345;29;20489;-77
2022/10/25 09:47:27;;;;;;;8.07;2.40;;;15.90;99.90;;;;;;4950857;28;20450;-77
2022/10/25 09:49:58;;;;;;;3.23;1.73;;;16.10;99.90;;;;;;4950984;28;20443;-77
2022/10/25 09:52:34;;;;;;;4.10;2.27;;;16.10;99.90;;;;;;4951220;28;20484;-77
2022/10/25 09:55:27;;;;;;;7.10;2.60;;;16.20;99.90;;;;;;4949735;28;20816;-76
2022/10/25 09:57:54;;;;;;;6.80;1.90;;;16.30;99.90;;;;;;4950488;28;20467;-77
2022/10/25 10:00:21;;;;;;;5.03;2.20;;;16.40;99.90;;;;;;4950510;28;20457;-76
2022/10/25 10:02:48;;;;;;;6.27;2.00;;;16.50;99.90;;;;;;4950398;28;20556;-77
2022/10/25 10:05:17;;;;;;;4.20;2.07;;;16.50;99.90;;;;;;4949809;28;21021;-76
2022/10/25 10:07:46;;;;;;;8.73;2.07;;;16.60;99.90;;;;;;4950454;28;20472;-76
2022/10/25 10:10:16;;;;;;;3.07;1.77;;;16.60;99.90;;;;;;4950118;28;20456;-76
2022/10/25 10:12:49;;;;;;;4.20;1.67;;;16.70;99.90;;;;;;4950060;28;20461;-76
2022/10/25 10:15:21;;;;;;;3.40;1.80;;;16.80;99.90;;;;;;4949482;28;20453;-77
2022/10/25 10:17:48;;;;;;;5.10;1.57;;;16.90;99.90;;;;;;4950251;28;20828;-76
2022/10/25 10:20:17;;;;;;;5.47;1.53;;;17.00;99.90;;;;;;4950050;28;20457;-76
2022/10/25 10:22:48;;;;;;;7.00;1.93;;;17.10;99.90;;;;;;4951003;28;20965;-77
2022/10/25 10:25:17;;;;;;;2.90;1.70;;;17.50;99.90;;;;;;4950571;28;20493;-77
2022/10/25 10:27:47;;;;;;;5.93;1.80;;;17.50;99.90;;;;;;4949531;28;20468;-77
2022/10/25 10:30:22;;;;;;;4.73;1.43;;;17.80;99.90;;;;;;4949841;28;20465;-77
2022/10/25 10:32:54;;;;;;;5.33;1.70;;;18.00;99.90;;;;;;4949098;28;20872;-77
2022/10/25 10:35:28;;;;;;;6.57;1.60;;;18.40;99.90;;;;;;4948546;28;20465;-77
2022/10/25 10:38:23;;;;;;;3.57;1.70;;;18.40;99.90;;;;;;4949911;28;20442;-77
2022/10/25 10:40:51;;;;;;;5.37;1.80;;;18.20;99.90;;;;;;4950445;28;20997;-78
2022/10/25 10:43:32;;;;;;;4.47;1.87;;;18.50;99.90;;;;;;4950332;28;20472;-77
2022/10/25 10:46:05;;;;;;;3.40;2.20;;;18.70;99.90;;;;;;4949228;28;20508;-79
2022/10/25 10:48:35;;;;;;;7.90;2.13;;;18.60;99.90;;;;;;4951176;28;20473;-78
2022/10/25 10:51:03;;;;;;;5.83;1.80;;;18.50;99.90;;;;;;4950651;28;20481;-79
2022/10/25 10:53:32;;;;;;;9.27;1.70;;;18.50;99.90;;;;;;4950196;28;20458;-79
2022/10/25 10:56:01;;;;;;;3.97;1.47;;;18.40;99.90;;;;;;4949771;28;20464;-79
2022/10/25 10:58:30;;;;;;;4.33;1.57;;;18.40;99.90;;;;;;4948904;28;20460;-79
2022/10/25 11:01:00;;;;;;;5.40;1.90;;;18.30;99.90;;;;;;4950638;28;20519;-79
2022/10/25 11:03:38;;;;;;;5.30;1.73;;;18.40;99.90;;;;;;4951074;28;20454;-80
2022/10/25 11:06:07;;;;;;;6.93;1.80;;;18.50;99.90;;;;;;4950167;28;20497;-80
2022/10/25 11:08:35;;;;;;;7.60;1.77;;;18.50;99.90;;;;;;4949749;28;20461;-77
2022/10/25 11:11:19;;;;;;;5.13;1.63;;;18.30;99.90;;;;;;4950444;28;20488;-78
2022/10/25 11:13:52;;;;;;;5.90;2.07;;;18.30;99.90;;;;;;4951456;28;20461;-76
2022/10/25 11:16:43;;;;;;;9.43;1.87;;;18.30;99.90;;;;;;4967946;28;20917;-77
2022/10/25 11:19:51;;;;;;;3.20;1.57;;;18.20;99.90;;;;;;4968957;28;20452;-77
2022/10/25 11:22:30;;;;;;;3.90;1.30;;;18.20;99.90;;;;;;4953483;28;20492;-76
2022/10/25 11:25:12;;;;;;;9.73;2.30;;;18.20;99.90;;;;;;4968046;28;20485;-77
2022/10/25 11:27:52;;;;;;;7.30;1.93;;;18.10;99.90;;;;;;4968198;28;20449;-78
2022/10/25 11:30:21;;;;;;;4.60;1.73;;;18.10;99.90;;;;;;4968522;28;20468;-78
2022/10/25 11:33:08;;;;;;;3.77;1.47;;;18.10;99.90;;;;;;4968933;28;20473;-77
2022/10/25 11:35:48;;;;;;;5.00;2.63;;;18.10;99.90;;;;;;4967495;28;20941;-78
2022/10/25 11:38:23;;;;;;;5.00;1.73;;;18.20;99.90;;;;;;4957461;28;20964;-77
2022/10/25 11:41:02;;;;;;;4.90;1.50;;;18.20;99.90;;;;;;4963770;28;20483;-78
2022/10/25 11:43:46;;;;;;;4.20;1.67;;;18.20;99.90;;;;;;4967834;28;20448;-77
2022/10/25 11:46:25;;;;;;;3.47;1.60;;;18.20;99.90;;;;;;4967026;28;20500;-77
2022/10/25 11:49:10;;;;;;;9.20;1.60;;;18.30;99.90;;;;;;4967806;28;20467;-78
2022/10/25 11:51:44;;;;;;;5.97;1.77;;;18.30;99.90;;;;;;4969052;28;20488;-77
2022/10/25 11:54:19;;;;;;;5.43;1.90;;;18.30;99.90;;;;;;4967226;28;20456;-77
2022/10/25 11:56:56;;;;;;;4.60;1.70;;;18.30;99.90;;;;;;4966958;28;20440;-78
2022/10/25 11:59:33;;;;;;;6.83;1.83;;;18.30;99.90;;;;;;4947736;28;20457;-77
2022/10/25 12:02:16;;;;;;;6.27;1.93;;;18.30;99.90;;;;;;4944885;29;20517;-77
2022/10/25 12:04:58;;;;;;;6.00;2.03;;;18.30;99.90;;;;;;4946691;28;20524;-77
2022/10/25 12:07:29;;;;;;;6.30;1.80;;;18.30;99.90;;;;;;4947249;28;20453;-77
2022/10/25 12:10:09;;;;;;;3.63;1.63;;;18.20;99.90;;;;;;4948010;28;20458;-78
2022/10/25 12:12:47;;;;;;;7.07;2.10;;;18.20;99.90;;;;;;4948912;28;20857;-77
2022/10/25 12:15:20;;;;;;;2.70;1.60;;;18.20;99.90;;;;;;4952408;28;20452;-79
2022/10/25 12:17:47;;;;;;;4.50;1.80;;;18.20;99.90;;;;;;4947856;28;20449;-77
2022/10/25 12:20:21;;;;;;;2.40;1.63;;;18.20;99.90;;;;;;4947263;28;20466;-78
2022/10/25 12:22:52;;;;;;;8.13;2.20;;;18.20;99.90;;;;;;4948144;28;20449;-78
2022/10/25 12:25:24;;;;;;;6.30;1.80;;;18.20;99.90;;;;;;4948158;28;21010;-78
2022/10/25 12:28:03;;;;;;;7.63;1.70;;;18.10;99.90;;;;;;4955759;28;20464;-77
2022/10/25 12:30:32;;;;;;;6.63;2.07;;;18.10;99.90;;;;;;4928698;29;20458;-78
2022/10/25 12:33:09;;;;;;;5.33;1.90;;;18.10;99.90;;;;;;4927134;29;20951;-77
2022/10/25 12:35:43;;;;;;;3.27;1.80;;;18.10;99.90;;;;;;4928203;29;20465;-77
2022/10/25 12:38:16;;;;;;;5.80;1.70;;;18.10;99.90;;;;;;4928760;29;20826;-77
2022/10/25 12:40:46;;;;;;;5.27;1.60;;;18.20;99.90;;;;;;4928794;29;20493;-78
2022/10/25 12:43:20;;;;;;;2.87;1.50;;;18.20;99.90;;;;;;4928317;29;20457;-77
2022/10/25 12:46:18;;;;;;;4.37;1.60;;;18.30;99.90;;;;;;4928143;29;20487;-77
2022/10/25 12:49:20;;;;;;;3.50;1.57;;;18.30;99.90;;;;;;4928138;29;20469;-79
2022/10/25 12:52:18;;;;;;;8.40;1.80;;;18.40;99.90;;;;;;4905298;29;20491;-66
2022/10/25 12:55:02;;;;;;;3.80;1.50;;;18.40;99.90;;;;;;4927858;29;20439;-67
2022/10/25 12:57:39;;;;;;;3.30;1.60;;;18.50;99.90;;;;;;4928755;29;20454;-68
2022/10/25 13:00:14;;;;;;;6.80;1.80;;;18.50;99.90;;;;;;4928404;29;20935;-68
2022/10/25 13:03:19;;;;;;;5.27;1.80;;;18.50;99.90;;;;;;4928038;29;20978;-67
2022/10/25 13:06:21;;;;;;;5.53;2.33;;;18.60;99.90;;;;;;4890394;29;20523;-67
2022/10/25 13:08:49;;;;;;;5.67;1.70;;;18.70;99.90;;;;;;4928339;29;20514;-67
2022/10/25 13:11:16;;;;;;;4.40;1.30;;;18.80;99.90;;;;;;4927939;29;20479;-67
2022/10/25 13:13:50;;;;;;;10.57;1.90;;;18.90;99.90;;;;;;4927938;29;20849;-68
2022/10/25 13:16:26;;;;;;;3.23;1.10;;;19.10;99.90;;;;;;4927834;29;20439;-67
2022/10/25 13:19:23;;;;;;;3.53;1.40;;;19.10;99.90;;;;;;4927913;29;20446;-67
2022/10/25 13:22:27;;;;;;;3.20;1.70;;;19.10;99.90;;;;;;4928112;29;20573;-68
2022/10/25 13:24:54;;;;;;;5.33;1.77;;;19.10;99.90;;;;;;4927922;29;20454;-68
2022/10/25 13:27:23;;;;;;;6.67;1.77;;;19.10;99.90;;;;;;4928500;29;20525;-68
2022/10/25 13:30:02;;;;;;;2.40;1.47;;;19.10;99.90;;;;;;4927929;29;20976;-68
2022/10/25 13:32:33;;;;;;;4.47;2.27;;;19.20;99.90;;;;;;4927709;29;20486;-68
2022/10/25 13:35:02;;;;;;;3.80;1.50;;;19.20;99.90;;;;;;4927563;29;20442;-68
2022/10/25 13:37:41;;;;;;;4.23;1.40;;;19.20;99.90;;;;;;4928251;29;20486;-68
2022/10/25 13:40:22;;;;;;;4.40;1.47;;;19.30;99.90;;;;;;4927814;29;20946;-67
2022/10/25 13:42:58;;;;;;;3.97;1.60;;;19.50;99.90;;;;;;4927770;29;20481;-68
2022/10/25 13:45:34;;;;;;;4.03;1.73;;;19.50;99.90;;;;;;4925837;29;20494;-68
2022/10/25 13:48:25;;;;;;;7.77;2.00;;;19.80;99.90;;;;;;4926372;29;20485;-68
2022/10/25 13:50:54;;;;;;;6.77;1.60;;;19.90;99.90;;;;;;4927727;29;20490;-68
2022/10/25 13:53:23;;;;;;;7.13;2.10;;;19.90;99.90;;;;;;4927404;29;20838;-70
2022/10/25 13:55:59;;;;;;;8.73;2.07;;;20.00;99.90;;;;;;4951518;28;20823;-67
2022/10/25 13:58:47;;;;;;;3.30;1.43;;;20.10;99.90;;;;;;4968490;28;20482;-66
2022/10/25 14:01:58;;;;;;;4.60;1.93;;;20.20;99.90;;;;;;4969331;28;20492;-67
2022/10/25 14:04:39;;;;;;;6.47;1.60;;;20.30;99.90;;;;;;4968762;28;20460;-68
2022/10/25 14:07:43;;;;;;;5.13;2.03;;;20.30;99.90;;;;;;4969734;28;20531;-68
2022/10/25 14:10:24;;;;;;;4.43;1.50;;;20.40;99.90;;;;;;4969309;28;21304;-67
2022/10/25 14:12:57;;;;;;;6.97;1.80;;;20.50;99.90;;;;;;4969970;28;20448;-67
2022/10/25 14:15:36;;;;;;;5.63;1.50;;;20.50;99.90;;;;;;4969308;28;20448;-67
2022/10/25 14:18:08;;;;;;;5.93;1.63;;;20.50;99.90;;;;;;4969847;28;20452;-66
2022/10/25 14:20:37;;;;;;;4.87;1.60;;;20.60;99.90;;;;;;4967833;28;21401;-67
2022/10/25 14:23:06;;;;;;;11.47;1.60;;;20.60;99.90;;;;;;4968523;28;20460;-68
2022/10/25 14:25:37;;;;;;;4.00;1.63;;;20.60;99.90;;;;;;4953943;28;20469;-68
2022/10/25 14:28:06;;;;;;;4.90;1.53;;;20.60;99.90;;;;;;4949918;28;21261;-67
2022/10/25 14:30:38;;;;;;;4.30;1.73;;;20.60;99.90;;;;;;4949252;28;20465;-69
2022/10/25 14:33:06;;;;;;;3.73;1.63;;;20.60;99.90;;;;;;4949505;28;21103;-67
2022/10/25 14:35:44;;;;;;;5.57;1.63;;;20.70;99.90;;;;;;4948864;28;20465;-66
2022/10/25 14:38:16;;;;;;;4.20;1.50;;;20.70;99.90;;;;;;4949912;28;20645;-67
2022/10/25 14:40:50;;;;;;;2.43;1.13;;;20.70;99.90;;;;;;4949778;28;20482;-67
2022/10/25 14:43:27;;;;;;;3.10;1.57;;;20.80;99.90;;;;;;4959017;28;20951;-68
2022/10/25 14:46:03;;;;;;;3.00;1.40;;;21.00;99.90;;;;;;4948656;28;20493;-67
2022/10/25 14:48:30;;;;;;;5.40;1.40;;;21.10;99.90;;;;;;4949217;28;20914;-68
2022/10/25 14:51:04;;;;;;;7.47;1.53;;;21.30;99.90;;;;;;4949494;28;20490;-68
2022/10/25 14:53:31;;;;;;;5.63;1.70;;;21.60;99.90;;;;;;4949568;28;20442;-68
2022/10/25 14:56:00;;;;;;;5.50;2.10;;;21.70;99.90;;;;;;4948179;28;20966;-67
2022/10/25 14:58:29;;;;;;;4.90;1.70;;;21.90;99.90;;;;;;4949215;28;20958;-69
2022/10/25 15:00:59;;;;;;;3.20;1.33;;;22.00;99.90;;;;;;4949123;28;20489;-69
2022/10/25 15:03:29;;;;;;;5.40;1.50;;;22.00;99.90;;;;;;4948875;28;20462;-69
2022/10/25 15:05:57;;;;;;;6.70;1.93;;;21.90;99.90;;;;;;4947784;28;20496;-68
2022/10/25 15:08:27;;;;;;;4.37;1.40;;;21.80;99.90;;;;;;4948983;28;20466;-66
2022/10/25 15:10:58;;;;;;;6.87;1.60;;;21.60;99.90;;;;;;4949600;28;20488;-79
2022/10/25 15:13:30;;;;;;;4.97;1.70;;;21.50;99.90;;;;;;4949174;28;20921;-78
2022/10/25 15:16:01;;;;;;;3.50;1.70;;;21.40;99.90;;;;;;4947809;28;20457;-78
2022/10/25 15:18:32;;;;;;;4.30;1.70;;;21.20;99.90;;;;;;4948237;28;20454;-77
2022/10/25 15:21:17;;;;;;;2.53;1.50;;;21.10;99.90;;;;;;4947785;28;20489;-78
2022/10/25 15:24:12;;;;;;;6.20;1.50;;;20.90;99.90;;;;;;4948179;28;20465;-78
2022/10/25 15:26:39;;;;;;;4.70;1.70;;;20.70;99.90;;;;;;4948080;28;20481;-78
2022/10/25 15:29:05;;;;;;;4.70;1.77;;;20.60;99.90;;;;;;4947886;28;20472;-78
2022/10/25 15:31:33;;;;;;;7.40;2.10;;;20.50;99.90;;;;;;4948187;28;20482;-77
2022/10/25 15:34:01;;;;;;;8.43;2.17;;;20.40;99.90;;;;;;4947243;28;20476;-77
2022/10/25 15:36:29;;;;;;;3.43;1.93;;;20.30;99.90;;;;;;4947785;28;20458;-75
2022/10/25 15:38:59;;;;;;;7.90;1.80;;;20.10;99.90;;;;;;4948139;28;20461;-76
2022/10/25 15:41:26;;;;;;;4.07;1.20;;;20.10;99.90;;;;;;4947618;28;20488;-76
2022/10/25 15:43:54;;;;;;;4.60;1.97;;;19.90;99.90;;;;;;4947131;28;20454;-75
2022/10/25 15:46:28;;;;;;;4.90;1.83;;;19.90;99.90;;;;;;4946858;28;20489;-76
2022/10/25 15:48:55;;;;;;;4.50;1.90;;;19.80;99.90;;;;;;4947665;28;20453;-77
2022/10/25 15:51:22;;;;;;;4.27;1.90;;;19.70;99.90;;;;;;4947481;28;20846;-76
2022/10/25 15:53:49;;;;;;;5.43;1.80;;;19.60;99.90;;;;;;4947582;28;20464;-76
2022/10/25 15:56:19;;;;;;;7.50;2.10;;;19.40;99.90;;;;;;4946699;28;20460;-76
2022/10/25 15:58:46;;;;;;;5.53;1.90;;;19.30;99.90;;;;;;4946778;28;20978;-76
2022/10/25 16:01:13;;;;;;;3.20;1.50;;;19.20;99.90;;;;;;4947367;28;20492;-76
2022/10/25 16:03:40;;;;;;;6.07;1.87;;;19.10;99.90;;;;;;4947636;28;20460;-76
2022/10/25 16:06:09;;;;;;;3.60;1.60;;;19.00;99.90;;;;;;4946513;28;20493;-76
2022/10/25 16:08:36;;;;;;;5.17;1.90;;;18.80;99.90;;;;;;4947262;28;20465;-77
2022/10/25 16:11:03;;;;;;;16.17;2.07;;;18.70;99.90;;;;;;4946595;28;20486;-76
2022/10/25 16:13:35;;;;;;;4.00;2.50;;;18.70;99.90;;;;;;4947545;28;20468;-77
2022/10/25 16:16:02;;;;;;;11.20;2.63;;;18.50;99.90;;;;;;4946373;28;20462;-76
2022/10/25 16:18:31;;;;;;;6.97;2.20;;;18.40;99.90;;;;;;4946979;28;20468;-76
2022/10/25 16:20:58;;;;;;;9.77;2.30;;;18.30;99.90;;;;;;4948575;28;20521;-76
2022/10/25 16:23:24;;;;;;;4.27;1.80;;;18.20;99.90;;;;;;4949884;28;20464;-76
2022/10/25 16:25:52;;;;;;;3.63;2.00;;;18.20;99.90;;;;;;4946904;28;20468;-76
2022/10/25 16:28:19;;;;;;;3.30;1.90;;;18.10;99.90;;;;;;4947727;28;20853;-76
2022/10/25 16:30:48;;;;;;;3.83;1.93;;;18.00;99.90;;;;;;4947771;28;20485;-77
2022/10/25 16:33:15;;;;;;;4.33;1.90;;;17.90;99.90;;;;;;4947335;28;20556;-77
2022/10/25 16:35:42;;;;;;;7.50;2.20;;;17.80;99.90;;;;;;4946454;28;20932;-76
2022/10/25 16:38:09;;;;;;;10.63;2.23;;;17.70;99.90;;;;;;4947703;28;20464;-76
2022/10/25 16:40:36;;;;;;;3.20;1.97;;;17.60;99.90;;;;;;4947908;28;20496;-76
2022/10/25 16:43:03;;;;;;;4.60;2.13;;;17.50;99.90;;;;;;4955585;28;20451;-77
2022/10/25 16:45:32;;;;;;;9.90;2.50;;;17.40;99.90;;;;;;4964534;28;20869;-78
2022/10/25 16:48:00;;;;;;;3.37;2.00;;;17.40;99.90;;;;;;4968963;28;20502;-74
2022/10/25 16:50:29;;;;;;;6.20;2.00;;;17.30;99.90;;;;;;4968852;28;20467;-74
2022/10/25 16:52:57;;;;;;;10.13;2.80;;;17.20;99.90;;;;;;4968935;28;20467;-74
2022/10/25 16:55:25;;;;;;;4.00;2.20;;;17.20;99.90;;;;;;4967788;28;20452;-73
2022/10/25 16:57:52;;;;;;;6.27;2.83;;;17.10;99.90;;;;;;4968962;28;20468;-74
2022/10/25 17:00:19;;;;;;;4.97;2.47;;;17.00;99.90;;;;;;4968433;28;21289;-74
2022/10/25 17:02:45;;;;;;;9.33;2.63;;;16.90;99.90;;;;;;4968950;28;20461;-75
2022/10/25 17:05:18;;;;;;;4.47;2.67;;;16.80;99.90;;;;;;4968288;28;20487;-77
2022/10/25 17:07:45;;;;;;;3.13;2.27;;;16.70;99.90;;;;;;4968856;28;20575;-74
2022/10/25 17:10:12;;;;;;;8.50;3.00;;;16.70;99.90;;;;;;4968570;28;20944;-73